Flight Track Log - Related Links

Times and Time Zones

All times are in EDT time to prevent confusion due to time zone crossing. See the BJS542 flight status page for this flight to view local times or setup timezone preferences in your user account.

Time Position Orientation Groundspeed Altitude Reporting Facility
EDT Latitude Longitude Course Direction KTS MPH feet Rate Location/Type
Thu 10:01:21 AM 33.1833 -97.2000 270° West 153 176 1,500  Level Dallas / Fort Worth TRACON
Thu 10:02:04 AM 33.1833 -97.2333 270° West 208 239 3,000 881 Climbing Dallas / Fort Worth TRACON
Thu 10:03:10 AM 33.1500 -97.3000 239° Southwest 207 238 3,100 700 Climbing Dallas / Fort Worth TRACON
Thu 10:04:04 AM 33.1167 -97.3500 231° Southwest 268 308 4,400 1,935 Climbing Dallas / Fort Worth TRACON
Thu 10:04:43 AM 33.0964 -97.3986 244° Southwest 269 310 6,100 3,333 Climbing Fort Worth Center
Thu 10:05:43 AM 33.0922 -97.4953 267° West 263 303 9,900 3,950 Climbing Fort Worth Center
Thu 10:06:43 AM 33.0942 -97.5769 272° West 275 316 14,000 3,650 Climbing Fort Worth Center
Thu 10:07:43 AM 33.0919 -97.6714 268° West 280 322 17,200 3,000 Climbing Fort Worth Center
Thu 10:08:43 AM 33.1064 -97.7831 279° West 299 344 20,000 2,300 Climbing Fort Worth Center
Thu 10:09:43 AM 33.1353 -97.8772 290° West 330 380 21,800 1,950 Climbing Fort Worth Center
Thu 10:10:43 AM 33.1806 -98.0142 292° West 371 427 23,900 2,050 Climbing Fort Worth Center
Thu 10:11:43 AM 33.2194 -98.1436 290° West 396 456 25,900 2,050 Climbing Fort Worth Center
Thu 10:12:43 AM 33.2625 -98.2781 291° West 422 486 28,000 2,000 Climbing Fort Worth Center
Thu 10:13:43 AM 33.2992 -98.4000 290° West 433 498 29,900 1,950 Climbing Fort Worth Center
Thu 10:14:43 AM 33.3458 -98.5525 290° West 433 498 31,900 1,900 Climbing Fort Worth Center
Thu 10:15:43 AM 33.3925 -98.6947 291° West 446 513 33,700 1,900 Climbing Fort Worth Center
Thu 10:16:43 AM 33.4389 -98.8447 290° West 466 536 35,700 1,900 Climbing Fort Worth Center
Thu 10:17:43 AM 33.4831 -98.9925 290° West 473 544 37,500 1,150 Climbing Fort Worth Center
Thu 10:18:43 AM 33.5439 -99.1306 298° West 473 544 38,000 250 Climbing Fort Worth Center
Thu 10:19:43 AM 33.6275 -99.2519 310° West 466 536 38,000  Level Fort Worth Center
Thu 10:20:43 AM 33.7114 -99.3736 310° West 476 548 38,000  Level Fort Worth Center
Thu 10:21:43 AM 33.7928 -99.4956 309° West 476 548 38,000  Level Fort Worth Center
Thu 10:22:43 AM 33.8783 -99.6175 310° West 476 548 38,000  Level Fort Worth Center
Thu 10:23:43 AM 33.9594 -99.7447 308° West 476 548 38,000  Level Fort Worth Center
Thu 10:24:43 AM 34.0447 -99.8700 309° West 481 554 38,000  Level Fort Worth Center
Thu 10:25:43 AM 34.1278 -99.9953 309° West 481 554 38,000 670 Level Fort Worth Center
Thu 10:27:51 AM 34.3075 -100.2642 309° West 478 550 40,100 947 Climbing Albuquerque Center
Thu 10:28:53 AM 34.3914 -100.3919 309° West 481 554 41,000 919 Climbing Albuquerque Center
Thu 10:29:55 AM 34.4758 -100.5189 309° West 480 552 42,000 968 Climbing Albuquerque Center
Thu 10:30:57 AM 34.5589 -100.6458 308° West 480 552 43,000 488 Climbing Albuquerque Center
Thu 10:31:58 AM 34.6383 -100.7692 308° West 472 543 43,000  Level Albuquerque Center
Thu 10:33:00 AM 34.7208 -100.8950 309° West 471 542 43,000  Level Albuquerque Center
Thu 10:34:02 AM 34.7992 -101.0175 308° West 463 533 43,000  Level Albuquerque Center
Thu 10:35:04 AM 34.8806 -101.1419 309° West 464 534 43,000  Level Albuquerque Center
Thu 10:36:06 AM 34.9603 -101.2667 308° West 465 535 43,000  Level Albuquerque Center
Thu 10:37:08 AM 35.0564 -101.4181 308° West 467 537 43,000  Level Albuquerque Center
Thu 10:38:10 AM 35.1397 -101.5456 309° West 474 545 43,000  Level Albuquerque Center
Thu 10:39:11 AM 35.2247 -101.6794 308° West 474 545 43,000  Level Albuquerque Center
Thu 10:40:13 AM 35.2994 -101.8128 305° West 473 544 43,000  Level Albuquerque Center
Thu 10:41:15 AM 35.3728 -101.9478 304° West 472 543 43,000  Level Albuquerque Center
Thu 10:42:17 AM 35.4458 -102.0839 303° West 474 545 43,000  Level Albuquerque Center
Thu 10:43:19 AM 35.5175 -102.2186 303° West 472 543 43,000  Level Albuquerque Center
Thu 10:44:21 AM 35.5914 -102.3544 304° West 473 544 43,000  Level Albuquerque Center
Thu 10:45:23 AM 35.6756 -102.5128 303° West 472 543 43,000  Level Albuquerque Center
Thu 10:46:25 AM 35.7475 -102.6492 303° West 472 543 43,000  Level Albuquerque Center
Thu 10:47:27 AM 35.8189 -102.7861 303° West 473 544 43,000  Level Albuquerque Center
Thu 10:48:29 AM 35.8925 -102.9244 303° West 477 549 43,000  Level Albuquerque Center
Thu 10:49:31 AM 35.9656 -103.0650 303° West 482 555 43,000  Level Albuquerque Center
Thu 10:50:33 AM 36.0383 -103.2036 303° West 480 552 43,000  Level Albuquerque Center
Thu 10:51:35 AM 36.1106 -103.3425 303° West 478 550 43,000  Level Albuquerque Center
Thu 10:52:37 AM 36.1933 -103.5022 303° West 472 543 43,000  Level Albuquerque Center
Thu 10:53:39 AM 36.2639 -103.6389 303° West 469 540 43,000  Level Albuquerque Center
Thu 10:54:41 AM 36.3350 -103.7764 303° West 470 541 43,000  Level Albuquerque Center
Thu 10:55:43 AM 36.4039 -103.9147 302° West 469 540 43,000  Level Albuquerque Center
Thu 10:56:45 AM 36.4733 -104.0508 302° West 466 536 43,000  Level Albuquerque Center
Thu 10:57:47 AM 36.5425 -104.1853 303° West 462 532 43,000  Level Albuquerque Center
Thu 10:58:49 AM 36.6225 -104.3414 303° West 458 527 43,000  Level Albuquerque Center
Thu 10:59:52 AM 36.6853 -104.4658 302° West 458 527 43,000  Level Albuquerque Center
Thu 11:00:54 AM 36.7575 -104.6119 302° West 456 525 43,000  Level Albuquerque Center
Thu 11:01:56 AM 36.8244 -104.7461 302° West 454 522 43,000 -48 Level Albuquerque Center
Thu 11:02:58 AM 36.9058 -104.8850 306° West 454 522 42,900 -529 Descending Albuquerque Center
Thu 11:03:38 AM 36.9497 -104.9319 319° Northwest 455 524 42,100 -1,824 Descending Denver Center
Thu 11:04:40 AM 37.0633 -105.0394 323° Northwest 448 516 39,800 -2,468 Descending Denver Center
Thu 11:05:42 AM 37.1781 -105.1464 323° Northwest 456 525 37,000 -2,516 Descending Denver Center
Thu 11:06:44 AM 37.2819 -105.2458 323° Northwest 468 539 34,600 -1,742 Descending Denver Center
Thu 11:07:46 AM 37.3831 -105.3425 323° Northwest 475 547 33,400 -774 Descending Denver Center
Thu 11:08:48 AM 37.5039 -105.4569 323° Northwest 485 558 33,000 -192 Descending Denver Center
Thu 11:09:51 AM 37.6042 -105.5522 323° Northwest 485 558 33,000  Level Denver Center
Thu 11:10:53 AM 37.7244 -105.6672 323° Northwest 485 558 33,000 -919 Level Denver Center
Thu 11:11:55 AM 37.8264 -105.7661 323° Northwest 483 556 31,100 -2,118 Descending Denver Center
Thu 11:13:09 AM 37.9456 -105.8819 323° Northwest 482 555 28,200 -1,809 Descending Denver Center
Thu 11:14:11 AM 38.0714 -106.0008 323° Northwest 438 504 27,000 -581 Descending Denver Center
Thu 11:15:13 AM 38.1586 -106.0906 321° Northwest 423 487 27,000  Level Denver Center
Thu 11:16:15 AM 38.2608 -106.1892 323° Northwest 454 522 27,000 -629 Level Denver Center
Thu 11:17:17 AM 38.3644 -106.2903 323° Northwest 467 537 25,700 -1,355 Descending Denver Center
Thu 11:18:19 AM 38.4669 -106.3711 328° Northwest 433 498 24,200 -1,597 Descending Denver Center
Thu 11:19:21 AM 38.5722 -106.4269 337° Northwest 411 473 22,400 -2,177 Descending Denver Center
Thu 11:20:23 AM 38.6969 -106.4928 338° Northwest 395 455 19,700 -2,256 Descending Denver Center
Thu 11:21:26 AM 38.7947 -106.5456 337° Northwest 384 442 17,700 -1,392 Descending Denver Center
Thu 11:22:28 AM 38.8886 -106.5953 338° Northwest 371 427 16,800 -435 Descending Denver Center
Thu 11:23:30 AM 38.9814 -106.6456 337° Northwest 368 423 16,800 -145 Level Denver Center
Thu 11:24:32 AM 39.0825 -106.6986 338° Northwest 366 421 16,500 -629 Descending Denver Center
Thu 11:25:34 AM 39.1656 -106.7322 343° North 344 396 15,500 -1,306 Descending Denver Center
Thu 11:26:36 AM 39.2444 -106.7672 341° North 314 361 13,800 -919 Descending Denver Center
Thu 11:27:38 AM 39.3258 -106.8081 339° North 270 311 13,600 -774 Descending Denver Center
Thu 11:28:40 AM 39.3467 -106.8783 291° West 221 254 12,200 -1,694 Descending Denver Center
Thu 11:29:42 AM 39.3192 -106.9333 237° Southwest 196 226 10,100 -1,632 Descending Denver Center
Thu 11:30:45 AM 39.2836 -106.9014 145° Southeast 172 198 8,800 -919 Descending Denver Center
Thu 11:31:46 AM 39.2464 -106.8797 156° South 158 182 8,200 -590 Descending Denver Center

Login

Don't have an account? Register now (free) for customized features, flight alerts, and more!